Time;durP1;ratioP1;P1;durP2;ratioP2;P2;SDS_P1;SDS_P2;PMS_P1;PMS_P2;Temp;Humidity;BMP_temperature;BMP_pressure;BME280_temperature;BME280_humidity;BME280_pressure;Samples;Min_cycle;Max_cycle;Signal;HPM_P1;HPM_P2
2022/08/31 00:06:04;;;;;;;8.82;2.50;;;17.30;99.90;;;;;;5010761;28;20072;-70
2022/08/31 00:08:31;;;;;;;3.80;2.60;;;17.30;99.90;;;;;;5019542;28;20022;-69
2022/08/31 00:10:56;;;;;;;4.65;2.75;;;17.30;99.90;;;;;;5012807;28;20076;-69
2022/08/31 00:13:25;;;;;;;3.22;2.50;;;17.30;99.90;;;;;;5018429;28;20089;-70
2022/08/31 00:15:52;;;;;;;5.63;2.47;;;17.30;99.90;;;;;;5011330;28;20029;-70
2022/08/31 00:18:18;;;;;;;3.80;2.38;;;17.30;99.90;;;;;;5010369;28;20130;-70
2022/08/31 00:20:45;;;;;;;5.05;2.40;;;17.30;99.90;;;;;;5016728;28;20497;-69
2022/08/31 00:23:13;;;;;;;3.97;2.35;;;17.30;99.90;;;;;;5010304;28;20030;-70
2022/08/31 00:25:40;;;;;;;3.00;2.40;;;17.20;99.90;;;;;;5021405;28;20029;-70
2022/08/31 00:28:07;;;;;;;4.95;2.40;;;17.20;99.90;;;;;;5017347;28;20104;-70
2022/08/31 00:30:33;;;;;;;5.00;2.40;;;17.20;99.90;;;;;;5017557;28;20686;-70
2022/08/31 00:32:59;;;;;;;2.35;2.10;;;17.20;99.90;;;;;;5011768;28;20132;-70
2022/08/31 00:35:29;;;;;;;2.65;2.20;;;17.30;99.90;;;;;;5007389;28;20486;-70
2022/08/31 00:37:55;;;;;;;6.90;2.47;;;17.20;99.90;;;;;;5014995;28;20025;-70
2022/08/31 00:40:21;;;;;;;4.22;2.47;;;17.20;99.90;;;;;;5021857;28;20033;-70
2022/08/31 00:42:47;;;;;;;4.72;2.38;;;17.30;99.90;;;;;;5011609;28;20176;-70
2022/08/31 00:45:13;;;;;;;4.57;2.40;;;17.30;99.90;;;;;;5007423;28;20108;-70
2022/08/31 00:47:39;;;;;;;3.88;2.20;;;17.30;99.90;;;;;;5015328;28;20025;-70
2022/08/31 00:50:09;;;;;;;6.07;2.63;;;17.30;99.90;;;;;;5019156;28;20485;-69
2022/08/31 00:52:38;;;;;;;4.75;2.15;;;17.30;99.90;;;;;;5012856;28;20037;-69
2022/08/31 00:55:10;;;;;;;7.07;2.40;;;17.40;99.90;;;;;;5015164;28;20091;-70
2022/08/31 00:57:38;;;;;;;3.17;2.67;;;17.30;99.90;;;;;;5022039;28;20038;-70
2022/08/31 01:00:08;;;;;;;7.53;2.45;;;17.30;99.90;;;;;;5016856;28;20046;-70
2022/08/31 01:02:33;;;;;;;6.25;2.47;;;17.30;99.90;;;;;;5021033;28;20078;-70
2022/08/31 01:04:59;;;;;;;3.45;2.55;;;17.30;99.90;;;;;;5022699;28;20026;-70
2022/08/31 01:07:26;;;;;;;6.25;2.83;;;17.30;99.90;;;;;;5015898;28;20056;-69
2022/08/31 01:09:53;;;;;;;6.22;2.63;;;17.20;99.90;;;;;;5011426;28;20049;-70
2022/08/31 01:12:18;;;;;;;3.83;2.60;;;17.20;99.90;;;;;;5020662;28;20030;-70
2022/08/31 01:14:44;;;;;;;6.53;2.60;;;17.20;99.90;;;;;;5017495;28;20034;-70
2022/08/31 01:17:10;;;;;;;4.30;2.42;;;17.10;99.90;;;;;;5020022;28;20101;-69
2022/08/31 01:19:45;;;;;;;5.32;2.78;;;17.10;99.90;;;;;;5018488;28;20148;-69
2022/08/31 01:22:16;;;;;;;8.68;2.67;;;17.10;99.90;;;;;;5017205;28;20029;-69
2022/08/31 01:24:45;;;;;;;3.60;2.70;;;17.00;99.90;;;;;;5011829;28;20410;-69
2022/08/31 01:27:13;;;;;;;8.77;2.70;;;17.00;99.90;;;;;;5019986;28;20117;-69
2022/08/31 01:29:39;;;;;;;4.88;2.65;;;17.00;99.90;;;;;;5025047;28;20116;-69
2022/08/31 01:32:06;;;;;;;3.22;2.60;;;16.90;99.90;;;;;;5020519;28;20885;-69
2022/08/31 01:34:32;;;;;;;4.93;2.63;;;16.90;99.90;;;;;;5024866;28;20033;-69
2022/08/31 01:36:59;;;;;;;7.18;3.10;;;16.90;99.90;;;;;;5006494;28;20444;-69
2022/08/31 01:39:25;;;;;;;3.38;2.30;;;16.90;99.90;;;;;;5014844;28;20034;-69
2022/08/31 01:41:51;;;;;;;3.92;2.65;;;16.80;99.90;;;;;;5015507;28;20052;-70
2022/08/31 01:44:20;;;;;;;10.30;3.05;;;16.80;99.90;;;;;;5017738;28;20034;-70
2022/08/31 01:46:46;;;;;;;5.18;2.65;;;16.80;99.90;;;;;;5018353;28;20039;-70
2022/08/31 01:49:14;;;;;;;5.93;2.85;;;16.70;99.90;;;;;;5013680;28;20064;-70
2022/08/31 01:51:40;;;;;;;5.20;2.97;;;16.70;99.90;;;;;;5020462;28;20053;-69
2022/08/31 01:54:06;;;;;;;5.07;3.10;;;16.70;99.90;;;;;;5018224;28;20104;-69
2022/08/31 01:56:36;;;;;;;4.07;2.92;;;16.70;99.90;;;;;;5009588;28;20499;-69
2022/08/31 01:59:04;;;;;;;3.80;2.78;;;16.70;99.90;;;;;;5017087;28;20045;-70
2022/08/31 02:01:34;;;;;;;6.63;2.72;;;16.60;99.90;;;;;;5014095;28;20103;-70
2022/08/31 02:04:01;;;;;;;5.90;2.70;;;16.60;99.90;;;;;;5008070;28;20022;-70
2022/08/31 02:06:27;;;;;;;3.90;2.33;;;16.60;99.90;;;;;;5020518;28;20049;-70
2022/08/31 02:08:52;;;;;;;6.10;2.88;;;16.60;99.90;;;;;;5016519;28;20030;-70
2022/08/31 02:11:18;;;;;;;3.85;2.40;;;16.60;99.90;;;;;;5012598;28;20042;-70
2022/08/31 02:13:44;;;;;;;6.20;2.50;;;16.50;99.90;;;;;;5015617;28;20382;-69
2022/08/31 02:16:10;;;;;;;5.25;2.50;;;16.60;99.90;;;;;;5026171;28;20069;-70
2022/08/31 02:18:35;;;;;;;3.53;2.85;;;16.50;99.90;;;;;;5023039;28;20242;-70
2022/08/31 02:21:02;;;;;;;3.40;2.63;;;16.50;99.90;;;;;;5023333;28;20398;-70
2022/08/31 02:23:28;;;;;;;6.15;2.75;;;16.50;99.90;;;;;;5005212;28;20061;-70
2022/08/31 02:25:54;;;;;;;4.72;2.67;;;16.50;99.90;;;;;;5018149;28;20093;-70
2022/08/31 02:28:21;;;;;;;2.55;2.33;;;16.40;99.90;;;;;;5015455;28;20812;-70
2022/08/31 02:30:47;;;;;;;5.72;2.60;;;16.40;99.90;;;;;;5008813;28;20479;-69
2022/08/31 02:33:12;;;;;;;4.78;2.53;;;16.40;99.90;;;;;;5009305;28;20026;-69
2022/08/31 02:35:38;;;;;;;5.38;2.70;;;16.40;99.90;;;;;;5020040;28;20025;-69
2022/08/31 02:38:05;;;;;;;3.92;2.70;;;16.40;99.90;;;;;;5019103;28;20547;-69
2022/08/31 02:40:32;;;;;;;3.75;2.50;;;16.40;99.90;;;;;;5018865;28;20026;-69
2022/08/31 02:42:58;;;;;;;4.90;2.72;;;16.30;99.90;;;;;;5009802;28;20033;-69
2022/08/31 02:45:23;;;;;;;4.47;2.40;;;16.30;99.90;;;;;;5012558;28;20492;-69
2022/08/31 02:47:49;;;;;;;4.68;2.42;;;16.30;99.90;;;;;;5020133;28;20025;-70
2022/08/31 02:50:16;;;;;;;3.95;2.97;;;16.20;99.90;;;;;;5021988;28;20053;-69
2022/08/31 02:52:45;;;;;;;8.07;2.92;;;16.20;99.90;;;;;;5017451;28;20037;-69
2022/08/31 02:55:11;;;;;;;3.78;2.47;;;16.20;99.90;;;;;;5022190;28;20029;-69
2022/08/31 02:57:36;;;;;;;3.13;2.63;;;16.20;99.90;;;;;;5017241;28;20537;-69
2022/08/31 03:00:04;;;;;;;4.30;2.85;;;16.20;99.90;;;;;;5018705;28;20497;-70
2022/08/31 03:02:30;;;;;;;7.75;2.80;;;16.20;99.90;;;;;;5014322;28;20030;-70
2022/08/31 03:04:55;;;;;;;4.47;2.60;;;16.20;99.90;;;;;;5015467;28;20116;-70
2022/08/31 03:07:21;;;;;;;5.15;2.90;;;16.20;99.90;;;;;;5021099;28;20030;-69
2022/08/31 03:09:46;;;;;;;3.85;2.88;;;16.10;99.90;;;;;;5025274;28;20041;-70
2022/08/31 03:12:12;;;;;;;5.80;2.88;;;16.10;99.90;;;;;;5013005;28;20026;-70
2022/08/31 03:14:38;;;;;;;5.18;2.50;;;16.10;99.90;;;;;;5020032;28;20037;-70
2022/08/31 03:17:03;;;;;;;4.95;2.85;;;16.10;99.90;;;;;;5012999;28;20517;-70
2022/08/31 03:19:29;;;;;;;2.95;2.30;;;16.10;99.90;;;;;;5020576;28;20048;-70
2022/08/31 03:21:55;;;;;;;3.22;2.55;;;16.10;99.90;;;;;;5011146;28;20116;-70
2022/08/31 03:24:20;;;;;;;3.85;2.65;;;16.00;99.90;;;;;;5017153;28;20026;-70
2022/08/31 03:26:47;;;;;;;7.05;2.70;;;16.10;99.90;;;;;;5012712;28;20026;-70
2022/08/31 03:29:13;;;;;;;3.88;2.53;;;16.00;99.90;;;;;;5022078;28;20024;-69
2022/08/31 03:31:39;;;;;;;3.47;2.67;;;16.00;99.90;;;;;;5020308;28;20393;-70
2022/08/31 03:34:04;;;;;;;6.00;2.80;;;16.00;99.90;;;;;;5020550;28;20878;-70
2022/08/31 03:36:30;;;;;;;6.95;2.67;;;16.00;99.90;;;;;;5020416;28;20029;-70
2022/08/31 03:38:56;;;;;;;3.85;2.58;;;16.00;99.90;;;;;;5023162;28;20025;-69
2022/08/31 03:41:24;;;;;;;5.05;2.83;;;15.90;99.90;;;;;;5017729;28;20044;-70
2022/08/31 03:43:50;;;;;;;4.28;2.83;;;16.00;99.90;;;;;;5020136;28;20021;-70
2022/08/31 03:46:16;;;;;;;5.55;2.88;;;15.90;99.90;;;;;;5020546;28;20677;-69
2022/08/31 03:48:42;;;;;;;6.57;3.22;;;15.90;99.90;;;;;;5020652;28;20037;-69
2022/08/31 03:51:07;;;;;;;6.00;2.75;;;15.90;99.90;;;;;;5024486;28;20033;-69
2022/08/31 03:53:34;;;;;;;5.43;2.70;;;15.90;99.90;;;;;;5014190;28;20475;-69
2022/08/31 03:56:02;;;;;;;8.23;2.88;;;15.90;99.90;;;;;;5014648;28;20025;-70
2022/08/31 03:58:28;;;;;;;8.10;3.30;;;15.90;99.90;;;;;;5011833;28;20037;-69
2022/08/31 04:00:55;;;;;;;6.85;3.00;;;15.90;99.90;;;;;;5015711;28;20030;-69
2022/08/31 04:03:22;;;;;;;5.82;3.17;;;15.90;99.90;;;;;;5013260;28;20046;-69
2022/08/31 04:05:48;;;;;;;7.10;3.08;;;15.90;99.90;;;;;;5016825;28;20029;-70
2022/08/31 04:08:15;;;;;;;5.93;3.00;;;15.90;99.90;;;;;;5017528;28;20017;-69
2022/08/31 04:10:42;;;;;;;4.00;3.00;;;15.90;99.90;;;;;;5017285;28;20521;-70
2022/08/31 04:13:07;;;;;;;7.03;3.15;;;15.80;99.90;;;;;;5018225;28;20113;-70
2022/08/31 04:15:36;;;;;;;3.90;2.88;;;15.80;99.90;;;;;;5016611;28;20533;-70
2022/08/31 04:18:02;;;;;;;7.63;3.42;;;15.80;99.90;;;;;;5018660;28;20036;-69
2022/08/31 04:20:28;;;;;;;8.55;3.17;;;15.80;99.90;;;;;;5016199;28;20029;-69
2022/08/31 04:22:53;;;;;;;7.95;3.55;;;15.80;99.90;;;;;;5012098;28;20025;-69
2022/08/31 04:25:19;;;;;;;6.63;3.25;;;15.80;99.90;;;;;;5016856;28;20425;-70
2022/08/31 04:27:46;;;;;;;7.28;3.20;;;15.80;99.90;;;;;;5013781;28;20047;-69
2022/08/31 04:30:12;;;;;;;8.30;3.60;;;15.80;99.90;;;;;;5021081;28;20267;-70
2022/08/31 04:32:38;;;;;;;4.60;3.38;;;15.80;99.90;;;;;;5015539;28;20029;-70
2022/08/31 04:35:04;;;;;;;6.07;3.33;;;15.80;99.90;;;;;;5024811;28;20117;-70
2022/08/31 04:37:30;;;;;;;13.80;3.88;;;15.80;99.90;;;;;;5027571;28;20037;-69
2022/08/31 04:39:56;;;;;;;12.05;3.65;;;15.80;99.90;;;;;;5017636;28;20025;-70
2022/08/31 04:42:22;;;;;;;6.25;3.28;;;15.80;99.90;;;;;;5013891;28;20294;-70
2022/08/31 04:44:48;;;;;;;9.00;3.50;;;15.70;99.90;;;;;;5015152;28;20026;-70
2022/08/31 04:47:14;;;;;;;5.85;3.60;;;15.70;99.90;;;;;;5019427;28;20155;-70
2022/08/31 04:49:40;;;;;;;6.20;3.47;;;15.70;99.90;;;;;;5026178;28;20102;-69
2022/08/31 04:52:07;;;;;;;5.05;3.42;;;15.70;99.90;;;;;;5018617;28;20748;-70
2022/08/31 04:54:32;;;;;;;7.75;3.67;;;15.70;99.90;;;;;;5022769;28;20040;-69
2022/08/31 04:56:58;;;;;;;5.75;3.85;;;15.70;99.90;;;;;;5025208;28;20033;-69
2022/08/31 04:59:26;;;;;;;4.88;3.70;;;15.70;99.90;;;;;;5018389;28;20406;-69
2022/08/31 05:01:53;;;;;;;4.90;3.55;;;15.70;99.90;;;;;;5020043;28;20032;-69
2022/08/31 05:04:22;;;;;;;6.07;3.83;;;15.70;99.90;;;;;;5021089;28;20112;-69
2022/08/31 05:06:49;;;;;;;5.90;3.45;;;15.70;99.90;;;;;;5024695;28;20116;-69
2022/08/31 05:09:19;;;;;;;4.15;3.60;;;15.70;99.90;;;;;;5019371;28;20033;-69
2022/08/31 05:11:45;;;;;;;5.25;3.20;;;15.70;99.90;;;;;;5020821;28;20061;-69
2022/08/31 05:14:11;;;;;;;4.00;3.22;;;15.70;99.90;;;;;;5020045;28;20064;-69
2022/08/31 05:16:39;;;;;;;4.53;3.80;;;15.80;99.90;;;;;;5021127;28;20029;-69
2022/08/31 05:19:05;;;;;;;3.85;3.38;;;15.80;99.90;;;;;;5021120;28;20083;-69
2022/08/31 05:21:34;;;;;;;6.55;3.85;;;15.80;99.90;;;;;;5013099;28;20065;-69
2022/08/31 05:24:12;;;;;;;8.20;3.92;;;15.80;99.90;;;;;;5018918;28;20040;-69
2022/08/31 05:26:43;;;;;;;7.53;3.78;;;15.90;99.90;;;;;;5013339;28;20050;-69
2022/08/31 05:29:12;;;;;;;4.70;3.50;;;15.90;99.90;;;;;;5017581;28;20033;-69
2022/08/31 05:31:39;;;;;;;9.25;4.10;;;15.90;99.90;;;;;;5015447;28;20030;-69
2022/08/31 05:34:05;;;;;;;8.65;4.25;;;15.90;99.90;;;;;;5017743;28;20049;-69
2022/08/31 05:36:32;;;;;;;5.13;4.30;;;15.90;99.90;;;;;;5016300;28;20500;-69
2022/08/31 05:38:59;;;;;;;6.75;3.95;;;15.90;99.90;;;;;;5025298;28;20440;-69
2022/08/31 05:41:25;;;;;;;10.13;4.22;;;16.00;99.90;;;;;;5014943;28;20116;-69
2022/08/31 05:43:51;;;;;;;5.40;4.00;;;16.00;99.90;;;;;;5013214;28;20025;-69
2022/08/31 05:46:17;;;;;;;5.95;4.38;;;16.00;99.90;;;;;;5017343;28;20075;-70
2022/08/31 05:48:42;;;;;;;7.78;4.00;;;16.00;99.90;;;;;;5006498;28;20026;-69
2022/08/31 05:51:12;;;;;;;4.95;4.10;;;16.10;99.90;;;;;;5012814;28;20508;-69
2022/08/31 05:53:38;;;;;;;9.57;4.50;;;16.10;99.90;;;;;;5014825;28;20413;-69
2022/08/31 05:56:13;;;;;;;11.15;4.20;;;16.20;99.90;;;;;;5011621;28;20029;-69
2022/08/31 05:58:41;;;;;;;8.48;4.03;;;16.10;99.90;;;;;;5015500;28;20108;-69
2022/08/31 06:01:25;;;;;;;9.10;4.13;;;16.20;99.90;;;;;;5018721;28;20398;-69
2022/08/31 06:03:52;;;;;;;8.55;4.05;;;16.30;99.90;;;;;;5006949;28;20556;-69
2022/08/31 06:06:19;;;;;;;4.80;4.05;;;16.30;99.90;;;;;;5017787;28;20320;-70
2022/08/31 06:08:45;;;;;;;5.40;4.07;;;16.30;99.90;;;;;;5017936;28;20029;-70
2022/08/31 06:11:14;;;;;;;5.45;4.00;;;16.30;99.90;;;;;;5013651;28;20030;-69
2022/08/31 06:13:41;;;;;;;5.78;3.80;;;16.40;99.90;;;;;;5018824;28;20112;-69
2022/08/31 06:16:08;;;;;;;6.18;3.95;;;16.40;99.90;;;;;;5015492;28;20500;-69
2022/08/31 06:18:37;;;;;;;5.15;4.00;;;16.40;99.90;;;;;;5020028;28;20549;-69
2022/08/31 06:21:07;;;;;;;4.50;3.83;;;16.40;99.90;;;;;;5012817;28;20543;-69
2022/08/31 06:23:36;;;;;;;5.55;3.50;;;16.50;99.90;;;;;;5025757;28;20112;-69
2022/08/31 06:26:11;;;;;;;4.20;3.80;;;16.50;99.90;;;;;;5010737;28;20030;-69
2022/08/31 06:28:41;;;;;;;5.80;3.83;;;16.50;99.90;;;;;;5022844;28;20036;-69
2022/08/31 06:31:11;;;;;;;6.25;4.50;;;16.50;99.90;;;;;;5012843;28;20037;-69
2022/08/31 06:33:38;;;;;;;8.70;4.50;;;16.50;99.90;;;;;;5018589;28;20032;-69
2022/08/31 06:36:12;;;;;;;10.50;4.20;;;16.50;99.90;;;;;;5023485;28;20073;-69
2022/08/31 06:38:39;;;;;;;5.38;4.20;;;16.50;99.90;;;;;;5024865;28;20036;-69
2022/08/31 06:41:17;;;;;;;8.15;4.22;;;16.60;99.90;;;;;;5017564;28;20063;-69
2022/08/31 06:43:43;;;;;;;6.18;4.57;;;16.60;99.90;;;;;;5020162;28;20033;-69
2022/08/31 06:46:11;;;;;;;7.97;4.55;;;16.60;99.90;;;;;;5020211;28;20048;-69
2022/08/31 06:48:37;;;;;;;7.30;4.38;;;16.60;99.90;;;;;;5016163;28;20121;-69
2022/08/31 06:51:05;;;;;;;8.30;4.60;;;16.60;99.90;;;;;;5023071;28;20044;-69
2022/08/31 06:53:31;;;;;;;9.43;4.35;;;16.60;99.90;;;;;;5017995;28;20113;-69
2022/08/31 06:56:02;;;;;;;5.32;3.85;;;16.60;99.90;;;;;;5013551;28;20021;-69
2022/08/31 06:58:28;;;;;;;10.77;4.13;;;16.70;99.90;;;;;;5017764;28;20049;-69
2022/08/31 07:00:57;;;;;;;4.50;3.85;;;16.70;99.90;;;;;;5014908;28;20026;-69
2022/08/31 07:03:23;;;;;;;8.68;4.25;;;16.70;99.90;;;;;;5018246;28;20056;-69
2022/08/31 07:05:53;;;;;;;8.38;4.00;;;16.80;99.90;;;;;;5013158;28;20049;-69
2022/08/31 07:08:20;;;;;;;6.22;3.90;;;16.70;99.90;;;;;;5018140;28;20530;-69
2022/08/31 07:10:46;;;;;;;4.68;4.22;;;16.80;99.90;;;;;;5011782;28;20030;-69
2022/08/31 07:13:11;;;;;;;5.63;3.72;;;16.90;99.90;;;;;;5019558;28;20025;-69
2022/08/31 07:15:37;;;;;;;7.32;4.35;;;16.90;99.90;;;;;;5010331;28;20084;-69
2022/08/31 07:18:03;;;;;;;6.70;3.90;;;17.00;99.90;;;;;;5014440;28;20497;-69
2022/08/31 07:20:29;;;;;;;5.38;4.30;;;17.10;99.90;;;;;;5010982;28;20038;-69
2022/08/31 07:22:56;;;;;;;5.95;4.00;;;17.10;99.90;;;;;;5014504;28;20021;-69
2022/08/31 07:25:21;;;;;;;4.40;4.00;;;17.20;99.90;;;;;;5014530;28;20050;-69
2022/08/31 07:27:54;;;;;;;5.28;3.88;;;17.30;99.90;;;;;;5013979;28;20393;-69
2022/08/31 07:30:21;;;;;;;4.67;4.00;;;17.40;99.90;;;;;;5023593;28;20043;-69
2022/08/31 07:32:49;;;;;;;5.80;3.50;;;17.50;99.90;;;;;;5014405;28;20279;-68
2022/08/31 07:35:16;;;;;;;5.70;4.03;;;17.60;99.90;;;;;;5013005;28;20505;-68
2022/08/31 07:43:11;;;;;;;6.03;3.72;;;17.80;99.90;;;;;;5018186;28;20437;-68
2022/08/31 07:45:37;;;;;;;6.30;4.03;;;17.90;99.90;;;;;;5023649;28;20030;-69
2022/08/31 07:48:02;;;;;;;4.90;3.72;;;18.00;99.90;;;;;;5010062;28;20360;-69
2022/08/31 07:50:30;;;;;;;7.05;4.10;;;18.10;99.90;;;;;;5012734;28;20037;-69
2022/08/31 07:52:57;;;;;;;4.38;3.47;;;18.20;99.90;;;;;;5011118;28;20549;-69
2022/08/31 07:55:24;;;;;;;5.95;3.80;;;18.30;99.90;;;;;;5021397;28;20100;-69
2022/08/31 07:57:53;;;;;;;4.18;3.75;;;18.40;99.90;;;;;;5011343;28;20025;-69
2022/08/31 08:00:25;;;;;;;7.60;3.70;;;18.50;99.90;;;;;;5012335;28;20088;-70
2022/08/31 08:02:52;;;;;;;6.00;3.80;;;18.60;99.90;;;;;;5019540;28;20489;-69
2022/08/31 08:05:23;;;;;;;7.15;4.00;;;18.70;99.90;;;;;;5018106;28;20018;-69
2022/08/31 08:07:51;;;;;;;8.32;3.60;;;18.80;99.90;;;;;;5021792;28;20141;-70
2022/08/31 08:10:20;;;;;;;5.80;3.80;;;18.80;99.90;;;;;;5019261;28;20033;-69
2022/08/31 08:12:55;;;;;;;6.32;3.35;;;18.80;99.90;;;;;;5022703;28;20041;-70
2022/08/31 08:15:25;;;;;;;6.47;3.72;;;18.80;99.90;;;;;;5023026;28;20486;-76
2022/08/31 08:17:50;;;;;;;5.70;3.70;;;18.80;99.90;;;;;;5019709;28;20099;-76
2022/08/31 08:20:17;;;;;;;4.75;3.50;;;19.00;99.90;;;;;;5020211;28;20037;-76
2022/08/31 08:22:43;;;;;;;5.60;3.80;;;19.20;99.90;;;;;;5008654;28;20041;-76
2022/08/31 08:25:10;;;;;;;6.10;4.05;;;19.30;99.90;;;;;;5006306;28;20022;-76
2022/08/31 08:27:37;;;;;;;4.47;3.47;;;19.60;99.90;;;;;;5010263;28;20490;-76
2022/08/31 08:30:08;;;;;;;5.20;3.40;;;19.80;99.90;;;;;;5022324;28;20026;-76
2022/08/31 08:32:34;;;;;;;4.88;3.70;;;19.90;99.90;;;;;;5004545;28;20095;-76
2022/08/31 08:35:00;;;;;;;7.18;3.50;;;19.80;99.90;;;;;;5004764;28;20231;-76
2022/08/31 08:37:26;;;;;;;6.40;3.22;;;19.80;99.90;;;;;;5007859;28;20026;-76
2022/08/31 08:39:52;;;;;;;6.53;3.28;;;19.80;99.90;;;;;;5001494;28;20060;-76
2022/08/31 08:42:20;;;;;;;3.40;2.90;;;19.80;99.90;;;;;;5004734;28;20166;-76
2022/08/31 08:44:45;;;;;;;7.03;3.35;;;20.00;99.90;;;;;;5008830;28;20037;-76
2022/08/31 08:47:19;;;;;;;6.38;3.03;;;20.10;99.90;;;;;;5019962;28;20029;-76
2022/08/31 08:49:51;;;;;;;5.43;3.35;;;20.30;99.90;;;;;;5013146;28;20520;-77
2022/08/31 08:52:43;;;;;;;4.70;3.40;;;20.30;99.90;;;;;;5008951;28;20476;-76
2022/08/31 08:55:21;;;;;;;3.55;3.13;;;20.50;99.90;;;;;;5014172;28;20038;-76
2022/08/31 08:57:50;;;;;;;6.75;3.58;;;20.50;99.90;;;;;;5022291;28;20120;-76
2022/08/31 09:00:19;;;;;;;7.50;3.50;;;20.60;99.90;;;;;;5018196;28;20059;-76
2022/08/31 09:02:56;;;;;;;7.60;4.00;;;20.60;99.90;;;;;;5013639;28;20240;-76
2022/08/31 09:05:54;;;;;;;8.60;4.00;;;20.60;99.90;;;;;;5013710;28;20026;-76
2022/08/31 09:08:45;;;;;;;4.18;3.78;;;20.60;99.90;;;;;;5015132;28;20065;-76
2022/08/31 09:11:29;;;;;;;4.25;3.85;;;20.50;99.90;;;;;;5010352;28;20072;-76
2022/08/31 09:14:19;;;;;;;5.72;3.72;;;20.50;99.90;;;;;;5010592;28;20033;-76
2022/08/31 09:17:02;;;;;;;7.38;3.95;;;20.50;99.90;;;;;;5013258;28;20084;-76
2022/08/31 09:19:56;;;;;;;5.25;3.80;;;20.40;99.90;;;;;;5021625;28;20108;-76
2022/08/31 09:22:13;;;;;;;4.63;4.22;;;20.30;99.90;;;;;;5014930;28;20533;-76
2022/08/31 09:24:39;;;;;;;5.90;4.18;;;20.30;99.90;;;;;;5016216;28;20022;-76
2022/08/31 09:27:16;;;;;;;4.65;4.15;;;20.20;99.90;;;;;;5019690;28;20026;-76
2022/08/31 09:29:52;;;;;;;4.88;4.20;;;20.30;99.90;;;;;;5011786;28;20229;-76
2022/08/31 09:32:23;;;;;;;6.18;4.47;;;20.40;99.90;;;;;;5009078;28;20544;-76
2022/08/31 09:35:00;;;;;;;5.22;3.97;;;20.40;99.90;;;;;;5021492;28;20348;-76
2022/08/31 09:37:32;;;;;;;5.72;4.20;;;20.50;99.90;;;;;;5013103;28;20057;-76
2022/08/31 09:40:18;;;;;;;7.57;4.25;;;20.50;99.90;;;;;;5015491;28;20242;-76
2022/08/31 09:42:58;;;;;;;7.55;4.13;;;20.60;99.90;;;;;;5011191;28;20485;-75
2022/08/31 09:45:28;;;;;;;4.03;3.67;;;20.70;99.90;;;;;;5017596;28;20060;-75
2022/08/31 09:47:59;;;;;;;4.80;3.95;;;20.80;99.90;;;;;;5010056;28;20223;-74
2022/08/31 09:50:27;;;;;;;5.75;4.00;;;20.80;99.90;;;;;;5019898;28;20443;-74
2022/08/31 09:56:14;;;;;;;6.05;4.10;;;20.80;99.90;;;;;;5011239;28;20051;-74
2022/08/31 09:58:45;;;;;;;4.78;4.30;;;20.90;99.90;;;;;;5015253;28;20050;-74
2022/08/31 10:01:19;;;;;;;8.13;3.90;;;20.90;99.90;;;;;;5018403;28;20413;-75
2022/08/31 10:03:46;;;;;;;4.03;3.60;;;20.80;99.90;;;;;;5018542;28;20025;-75
2022/08/31 10:06:56;;;;;;;4.47;3.90;;;20.80;99.90;;;;;;5016730;28;20030;-74
2022/08/31 10:09:31;;;;;;;7.85;3.78;;;20.80;99.90;;;;;;4919263;29;20067;-74
2022/08/31 10:12:03;;;;;;;4.82;3.70;;;20.70;99.90;;;;;;4998129;28;20034;-74
2022/08/31 10:14:35;;;;;;;4.50;3.70;;;20.60;99.90;;;;;;5020244;28;20048;-74
2022/08/31 10:17:24;;;;;;;4.40;3.97;;;20.70;99.90;;;;;;5022149;28;20025;-75
2022/08/31 10:20:14;;;;;;;9.30;3.55;;;20.80;99.90;;;;;;5014552;28;20688;-74
2022/08/31 10:22:49;;;;;;;3.78;3.15;;;20.90;99.90;;;;;;5011071;28;20108;-75
2022/08/31 10:25:20;;;;;;;4.07;3.50;;;20.80;99.90;;;;;;5005730;28;20026;-74
2022/08/31 10:28:14;;;;;;;3.97;3.60;;;20.80;99.90;;;;;;5018031;28;20026;-75
2022/08/31 10:31:00;;;;;;;6.78;3.75;;;20.90;99.90;;;;;;5016388;28;20040;-74
2022/08/31 10:36:20;;;;;;;;;;;20.90;99.90;;;;;;5018863;28;20076;-74
2022/08/31 10:38:48;;;;;;;8.32;3.88;;;20.80;99.90;;;;;;5020208;28;19948;-74
2022/08/31 10:41:16;;;;;;;4.25;3.72;;;20.80;99.90;;;;;;5012854;28;20040;-75
2022/08/31 10:43:49;;;;;;;4.25;3.55;;;20.80;99.90;;;;;;5017847;28;20061;-74
2022/08/31 10:46:15;;;;;;;4.73;3.47;;;20.80;99.90;;;;;;5018560;28;20033;-75
2022/08/31 10:48:45;;;;;;;7.45;3.60;;;20.80;99.90;;;;;;5016401;28;20030;-74
2022/08/31 10:51:25;;;;;;;6.38;3.35;;;20.80;99.90;;;;;;5014386;28;20680;-74
2022/08/31 10:54:12;;;;;;;3.70;3.40;;;20.90;99.90;;;;;;5014996;28;20043;-75
2022/08/31 10:56:55;;;;;;;5.97;3.33;;;21.10;99.90;;;;;;5018613;28;20591;-74
2022/08/31 10:59:48;;;;;;;3.92;3.30;;;21.20;99.90;;;;;;5017151;28;20778;-74
2022/08/31 11:02:19;;;;;;;5.85;3.30;;;21.30;99.90;;;;;;5011386;28;20033;-75
2022/08/31 11:04:51;;;;;;;3.30;3.00;;;21.40;99.90;;;;;;5012630;28;20068;-75
2022/08/31 11:07:40;;;;;;;4.38;3.50;;;21.60;99.90;;;;;;5012717;28;20029;-75
2022/08/31 11:10:18;;;;;;;3.50;3.20;;;21.90;99.90;;;;;;5013518;28;20018;-75
2022/08/31 11:12:51;;;;;;;5.13;3.20;;;22.20;99.90;;;;;;5005230;28;20033;-75
2022/08/31 11:15:42;;;;;;;4.90;3.40;;;22.40;99.50;;;;;;5013014;28;20030;-75
2022/08/31 11:18:17;;;;;;;3.28;3.08;;;22.60;99.10;;;;;;5010628;28;20030;-74
2022/08/31 11:21:17;;;;;;;4.65;3.00;;;22.50;98.30;;;;;;5021128;28;20029;-74
2022/08/31 11:23:59;;;;;;;6.10;2.88;;;22.50;97.50;;;;;;5016080;28;20142;-73
2022/08/31 11:26:49;;;;;;;4.85;2.60;;;22.50;97.30;;;;;;5018430;28;20030;-73
2022/08/31 11:29:56;;;;;;;7.03;3.03;;;22.50;97.10;;;;;;5016582;28;20033;-74
2022/08/31 11:32:36;;;;;;;5.25;2.83;;;22.40;96.70;;;;;;4925902;29;20039;-74
2022/08/31 11:35:08;;;;;;;3.42;2.90;;;22.30;96.70;;;;;;5003924;28;20044;-75
2022/08/31 11:37:53;;;;;;;2.90;2.63;;;22.20;96.80;;;;;;5019400;28;20041;-75
2022/08/31 11:40:40;;;;;;;5.68;3.10;;;22.40;97.10;;;;;;5011328;28;20084;-74
2022/08/31 11:43:07;;;;;;;3.78;2.72;;;22.70;96.70;;;;;;5013308;28;20505;-74
2022/08/31 11:45:36;;;;;;;3.00;2.35;;;23.10;95.50;;;;;;5019501;28;20021;-75
2022/08/31 11:48:05;;;;;;;2.63;2.30;;;23.40;94.50;;;;;;5023077;28;20018;-75
2022/08/31 11:50:53;;;;;;;3.55;2.20;;;23.70;94.00;;;;;;5013733;28;20037;-74
2022/08/31 11:53:32;;;;;;;3.47;2.63;;;23.90;93.50;;;;;;5010443;28;20172;-74
2022/08/31 11:55:59;;;;;;;2.50;2.30;;;24.10;92.90;;;;;;5011776;28;20382;-75
2022/08/31 11:58:33;;;;;;;5.10;2.35;;;24.20;92.30;;;;;;5011204;28;20179;-75
2022/08/31 12:01:02;;;;;;;6.50;2.30;;;24.40;92.10;;;;;;5013013;28;20053;-74
2022/08/31 12:03:51;;;;;;;6.45;2.30;;;24.60;91.70;;;;;;5007228;28;20033;-74
2022/08/31 12:06:32;;;;;;;2.47;1.92;;;24.80;90.60;;;;;;5020038;28;20441;-74
2022/08/31 12:09:01;;;;;;;3.00;1.70;;;25.00;91.00;;;;;;5009422;28;20034;-75
2022/08/31 12:11:47;;;;;;;2.28;2.10;;;25.10;90.00;;;;;;5011397;28;20033;-75
2022/08/31 12:14:24;;;;;;;2.38;1.90;;;25.00;90.00;;;;;;5012050;28;20037;-75
2022/08/31 12:17:26;;;;;;;2.13;1.73;;;25.10;89.40;;;;;;5021993;28;20030;-75
2022/08/31 12:20:25;;;;;;;2.55;1.63;;;25.10;87.80;;;;;;5020358;28;20116;-75
2022/08/31 12:25:59;;;;;;;3.83;1.55;;;24.80;87.80;;;;;;5015239;28;20075;-73
2022/08/31 12:29:08;;;;;;;2.33;1.50;;;24.50;88.00;;;;;;4325810;28;10001443;-74
2022/08/31 12:31:36;;;;;;;3.05;1.50;;;24.40;88.20;;;;;;5019683;28;20517;-75
2022/08/31 12:34:16;;;;;;;1.80;1.70;;;24.60;87.50;;;;;;5027804;28;20045;-75
2022/08/31 12:36:43;;;;;;;1.58;1.45;;;24.50;87.60;;;;;;5030491;28;20037;-74
2022/08/31 12:39:29;;;;;;;3.40;1.80;;;24.30;87.50;;;;;;5025852;28;20064;-76
2022/08/31 12:41:58;;;;;;;1.85;1.50;;;24.10;88.60;;;;;;5019002;28;20665;-76
2022/08/31 12:44:32;;;;;;;4.32;1.40;;;24.00;88.60;;;;;;5036029;28;20083;-74
2022/08/31 12:47:15;;;;;;;3.38;1.40;;;23.80;87.80;;;;;;5029893;28;20072;-74
2022/08/31 12:49:51;;;;;;;2.70;1.45;;;23.50;88.80;;;;;;5025554;28;20035;-74
2022/08/31 12:52:16;;;;;;;2.42;1.50;;;23.30;89.30;;;;;;5023290;28;20021;-74
2022/08/31 12:54:54;;;;;;;1.42;1.33;;;23.10;89.40;;;;;;5036521;28;20381;-74
2022/08/31 12:57:42;;;;;;;1.60;1.50;;;22.90;89.10;;;;;;5035028;28;20482;-75
2022/08/31 13:00:25;;;;;;;1.30;1.20;;;22.70;89.70;;;;;;5014241;28;20587;-75
2022/08/31 13:02:54;;;;;;;5.18;1.65;;;22.60;90.00;;;;;;5019794;28;20493;-74
2022/08/31 13:05:29;;;;;;;3.15;1.60;;;22.60;90.20;;;;;;5021023;28;20026;-74
2022/08/31 13:07:56;;;;;;;4.55;1.60;;;22.60;90.60;;;;;;5018637;28;20025;-74
2022/08/31 13:10:33;;;;;;;1.65;1.52;;;22.60;90.40;;;;;;5016587;28;20092;-74
2022/08/31 13:13:03;;;;;;;2.80;1.50;;;22.70;90.50;;;;;;5013702;28;20507;-75
2022/08/31 13:15:38;;;;;;;3.08;1.60;;;22.70;90.40;;;;;;5014487;28;20038;-75
2022/08/31 13:18:13;;;;;;;1.88;1.73;;;22.90;90.20;;;;;;5017710;28;20033;-75
2022/08/31 13:20:42;;;;;;;1.85;1.75;;;23.00;89.50;;;;;;5019076;28;20064;-75
2022/08/31 13:23:12;;;;;;;2.45;1.90;;;22.90;88.80;;;;;;5009763;28;20034;-74
2022/08/31 13:25:38;;;;;;;3.47;1.50;;;22.80;89.80;;;;;;5012470;28;20721;-73